Terminal Aerodrome Forecast
Issued by NWS

Home | Current Version | Previous Version | Text Only | Print | Product List | Glossary On
Versions: 1 2 3 4 5 6 7 8 9 10 11 12 13 14 15 16 17 18 19 20
920
FTUS43 KDLH 211136
TAFBRD
TAF
KBRD 211136Z 2112/2212 29028G31KT P6SM BKN035
      TEMPO 2112/2116 5SM -SHSN BKN025
     FM212200 31015G23KT P6SM FEW035
     FM220100 30009KT P6SM SCT030=

USA.gov is the U.S. government's official web portal to all federal, state and local government web resources and services.